createdAt,value
2023-01-29T00:01:54.089Z,2.61
2023-01-29T00:04:20.784Z,2.59
2023-01-29T00:06:47.278Z,2.67
2023-01-29T00:09:13.796Z,2.49
2023-01-29T00:11:41.091Z,2.53
2023-01-29T00:14:07.992Z,2.48
2023-01-29T00:16:34.544Z,2.62
2023-01-29T00:19:02.248Z,2.60
2023-01-29T00:21:31.086Z,2.62
2023-01-29T00:23:58.687Z,2.63
2023-01-29T00:26:25.860Z,2.53
2023-01-29T00:28:52.523Z,2.52
2023-01-29T00:31:22.137Z,2.52
2023-01-29T00:33:49.650Z,2.58
2023-01-29T00:36:18.423Z,2.60
2023-01-29T00:38:46.426Z,2.54
2023-01-29T00:41:34.297Z,2.60
2023-01-29T00:44:20.093Z,2.52
2023-01-29T00:46:46.784Z,2.64
2023-01-29T00:49:13.396Z,2.48
2023-01-29T00:51:40.098Z,2.72
2023-01-29T00:54:07.060Z,2.80
2023-01-29T00:56:36.648Z,2.56
2023-01-29T00:59:04.384Z,2.45
2023-01-29T01:01:49.405Z,2.51
2023-01-29T01:04:15.889Z,2.45
2023-01-29T01:06:42.986Z,2.41
2023-01-29T01:09:29.206Z,2.37
2023-01-29T01:11:55.991Z,2.34
2023-01-29T01:14:22.525Z,2.31
2023-01-29T01:16:49.462Z,2.39
2023-01-29T01:19:16.429Z,2.45
2023-01-29T01:21:48.253Z,2.42
2023-01-29T01:24:15.411Z,2.43
2023-01-29T01:26:41.958Z,2.31
2023-01-29T01:29:09.141Z,2.28
2023-01-29T01:31:35.810Z,2.33
2023-01-29T01:34:02.445Z,2.09
2023-01-29T01:36:28.883Z,2.41
2023-01-29T01:38:55.577Z,2.44
2023-01-29T01:41:23.283Z,2.23
2023-01-29T01:43:58.616Z,2.16
2023-01-29T01:46:28.338Z,2.20
2023-01-29T01:49:01.539Z,2.15
2023-01-29T01:51:32.110Z,2.13
2023-01-29T01:54:12.806Z,2.36
2023-01-29T01:56:44.506Z,2.43
2023-01-29T01:59:14.554Z,2.46
2023-01-29T02:01:43.335Z,2.39
2023-01-29T02:04:40.833Z,2.45
2023-01-29T02:07:31.697Z,2.36
2023-01-29T02:10:10.025Z,2.40
2023-01-29T02:12:37.362Z,2.34
2023-01-29T02:15:05.146Z,2.44
2023-01-29T02:17:32.358Z,2.46
2023-01-29T02:20:30.175Z,2.47
2023-01-29T02:23:16.825Z,2.47
2023-01-29T02:26:13.540Z,2.37
2023-01-29T02:28:54.717Z,2.31
2023-01-29T02:31:34.670Z,2.36
2023-01-29T02:34:18.670Z,2.39
2023-01-29T02:36:51.530Z,2.37
2023-01-29T02:39:39.638Z,2.26
2023-01-29T02:42:27.844Z,2.48
2023-01-29T02:45:06.396Z,2.50
2023-01-29T02:47:47.597Z,2.61
2023-01-29T02:51:00.602Z,2.16
2023-01-29T02:53:34.790Z,2.24
2023-01-29T02:56:15.833Z,2.16
2023-01-29T02:58:54.926Z,2.17
2023-01-29T03:01:30.347Z,2.16
2023-01-29T03:04:03.195Z,2.20
2023-01-29T03:06:37.998Z,2.22
2023-01-29T03:09:26.892Z,2.17
2023-01-29T03:12:01.121Z,2.14
2023-01-29T03:14:59.057Z,2.10
2023-01-29T03:17:32.595Z,2.01
2023-01-29T03:19:59.645Z,1.99
2023-01-29T03:22:27.278Z,1.94
2023-01-29T03:25:16.905Z,2.01
2023-01-29T03:28:08.622Z,2.17
2023-01-29T03:30:59.159Z,2.15
2023-01-29T03:33:29.563Z,2.19
2023-01-29T03:36:02.481Z,2.14
2023-01-29T03:38:31.700Z,2.16
2023-01-29T03:41:06.623Z,1.96
2023-01-29T03:43:36.061Z,2.08
2023-01-29T03:46:14.353Z,2.10
2023-01-29T03:48:53.568Z,1.99
2023-01-29T03:51:28.275Z,1.91
2023-01-29T03:54:08.309Z,2.00
2023-01-29T03:56:52.855Z,2.03
2023-01-29T03:59:28.163Z,2.04
2023-01-29T04:01:59.486Z,2.04
2023-01-29T04:04:33.067Z,2.04
2023-01-29T04:07:11.593Z,1.97
2023-01-29T04:09:45.380Z,2.01
2023-01-29T04:12:16.396Z,2.07
2023-01-29T04:14:43.021Z,2.02
2023-01-29T04:17:16.393Z,2.14
2023-01-29T04:19:43.355Z,2.17
2023-01-29T04:22:34.641Z,2.17
2023-01-29T04:25:15.897Z,2.18
2023-01-29T04:27:57.322Z,2.16
2023-01-29T04:30:44.598Z,2.11
2023-01-29T04:33:30.424Z,2.18
2023-01-29T04:36:07.104Z,2.09
2023-01-29T04:38:59.498Z,1.90
2023-01-29T04:41:40.561Z,1.92
2023-01-29T04:44:33.472Z,1.92
2023-01-29T04:47:23.795Z,2.00
2023-01-29T04:50:11.656Z,1.88
2023-01-29T04:52:50.264Z,1.95
2023-01-29T04:55:47.216Z,1.82
2023-01-29T04:58:35.927Z,1.88
2023-01-29T05:01:07.065Z,2.00
2023-01-29T05:03:36.295Z,1.89
2023-01-29T05:06:04.849Z,1.75
2023-01-29T05:08:32.744Z,1.83
2023-01-29T05:10:59.902Z,1.78
2023-01-29T05:13:29.984Z,1.74
2023-01-29T05:16:04.880Z,1.76
2023-01-29T05:18:32.279Z,1.76
2023-01-29T05:21:04.304Z,1.78
2023-01-29T05:23:30.941Z,1.76
2023-01-29T05:25:57.808Z,1.82
2023-01-29T05:28:24.299Z,1.79
2023-01-29T05:30:53.681Z,1.74
2023-01-29T05:33:23.006Z,1.73
2023-01-29T05:35:50.372Z,1.77
2023-01-29T05:38:20.531Z,1.86
2023-01-29T05:40:47.549Z,1.83
2023-01-29T05:43:25.198Z,1.76
2023-01-29T05:45:52.874Z,1.71
2023-01-29T05:48:19.483Z,1.66
2023-01-29T05:50:45.979Z,1.68
2023-01-29T05:53:12.502Z,1.59
2023-01-29T05:55:39.005Z,1.55
2023-01-29T05:58:06.205Z,1.50
2023-01-29T06:00:32.712Z,1.49
2023-01-29T06:02:59.315Z,1.52
2023-01-29T06:05:25.852Z,1.48
2023-01-29T06:07:52.290Z,1.50
2023-01-29T06:10:19.153Z,1.44
2023-01-29T06:12:45.938Z,1.39
2023-01-29T06:15:13.010Z,1.45
2023-01-29T06:17:39.573Z,1.47
2023-01-29T06:20:06.729Z,1.58
2023-01-29T06:22:33.552Z,1.56
2023-01-29T06:25:00.058Z,1.50
2023-01-29T06:27:26.736Z,1.53
2023-01-29T06:29:53.203Z,1.48
2023-01-29T06:32:19.764Z,1.51
2023-01-29T06:34:48.637Z,1.49
2023-01-29T06:37:16.135Z,1.47
2023-01-29T06:39:42.585Z,1.45
2023-01-29T06:42:09.994Z,1.47
2023-01-29T06:44:36.573Z,1.39
2023-01-29T06:47:03.090Z,1.34
2023-01-29T06:49:29.637Z,1.41
2023-01-29T06:51:56.125Z,1.45
2023-01-29T06:54:22.626Z,1.44
2023-01-29T06:56:49.243Z,1.51
2023-01-29T06:59:16.007Z,1.44
2023-01-29T07:01:44.219Z,1.34
2023-01-29T07:04:11.497Z,1.37
2023-01-29T07:06:38.024Z,1.42
2023-01-29T07:09:05.007Z,1.36
2023-01-29T07:11:32.019Z,1.39
2023-01-29T07:13:58.580Z,1.37
2023-01-29T07:16:26.376Z,1.33
2023-01-29T07:18:53.119Z,1.42
2023-01-29T07:21:19.687Z,1.44
2023-01-29T07:23:46.213Z,1.46
2023-01-29T07:26:12.704Z,1.42
2023-01-29T07:28:40.051Z,1.58
2023-01-29T07:31:07.347Z,1.61
2023-01-29T07:33:34.663Z,1.63
2023-01-29T07:36:01.155Z,1.64
2023-01-29T07:38:27.823Z,1.66
2023-01-29T07:40:54.847Z,1.87
2023-01-29T07:43:21.454Z,1.71
2023-01-29T07:45:48.040Z,1.70
2023-01-29T07:48:14.555Z,1.83
2023-01-29T07:50:41.406Z,1.83
2023-01-29T07:53:19.302Z,1.90
2023-01-29T07:55:45.783Z,1.95
2023-01-29T07:58:12.739Z,1.82
2023-01-29T08:00:39.505Z,1.80
2023-01-29T08:03:07.837Z,1.88
2023-01-29T08:05:34.453Z,1.81
2023-01-29T08:08:07.007Z,1.85
2023-01-29T08:10:38.467Z,1.65
2023-01-29T08:13:06.106Z,1.71
2023-01-29T08:15:33.599Z,1.67
2023-01-29T08:18:02.171Z,1.72
2023-01-29T08:20:28.884Z,1.76
2023-01-29T08:23:00.806Z,1.74
2023-01-29T08:25:28.130Z,1.80
2023-01-29T08:27:56.170Z,1.80
2023-01-29T08:30:22.974Z,1.85
2023-01-29T08:32:49.483Z,1.88
2023-01-29T08:35:16.107Z,1.88
2023-01-29T08:38:01.695Z,1.96
2023-01-29T08:40:31.943Z,2.23
2023-01-29T08:43:04.074Z,2.20
2023-01-29T08:45:34.656Z,2.31
2023-01-29T08:48:01.364Z,2.29
2023-01-29T08:50:30.050Z,2.27
2023-01-29T08:53:01.163Z,2.22
2023-01-29T08:55:28.388Z,2.29
2023-01-29T08:57:57.319Z,2.39
2023-01-29T09:00:23.950Z,2.36
2023-01-29T09:02:50.559Z,2.25
2023-01-29T09:05:17.417Z,2.38
2023-01-29T09:07:44.136Z,2.39
2023-01-29T09:10:12.254Z,2.43
2023-01-29T09:12:38.865Z,2.47
2023-01-29T09:15:05.844Z,2.47
2023-01-29T09:17:32.288Z,2.42
2023-01-29T09:19:58.848Z,2.40
2023-01-29T09:22:25.386Z,2.49
2023-01-29T09:24:51.930Z,2.38
2023-01-29T09:27:18.442Z,2.37
2023-01-29T09:29:44.971Z,2.30
2023-01-29T09:32:11.446Z,2.33
2023-01-29T09:34:37.942Z,2.25
2023-01-29T09:37:04.467Z,2.18
2023-01-29T09:39:30.955Z,2.18
2023-01-29T09:42:06.088Z,2.33
2023-01-29T09:45:14.968Z,2.37
2023-01-29T09:47:42.095Z,2.42
2023-01-29T09:50:19.035Z,2.52
2023-01-29T09:52:52.159Z,2.62
2023-01-29T09:55:25.034Z,2.54
2023-01-29T09:58:07.582Z,2.34
2023-01-29T10:00:40.462Z,2.42
2023-01-29T10:03:18.954Z,2.39
2023-01-29T10:06:05.335Z,2.46
2023-01-29T10:08:48.520Z,2.52
2023-01-29T10:11:17.648Z,2.57
2023-01-29T10:13:59.927Z,2.54
2023-01-29T10:16:38.411Z,2.56
2023-01-29T10:19:17.060Z,2.51
2023-01-29T10:22:04.413Z,2.45
2023-01-29T10:24:42.043Z,2.66
2023-01-29T10:27:15.488Z,2.72
2023-01-29T10:29:43.027Z,2.79
2023-01-29T10:32:16.292Z,2.86
2023-01-29T10:34:56.269Z,2.87
2023-01-29T10:37:26.552Z,2.96
2023-01-29T10:39:53.150Z,2.98
2023-01-29T10:42:28.678Z,3.01
2023-01-29T10:45:18.503Z,3.02
2023-01-29T10:47:54.099Z,3.03
2023-01-29T10:50:47.105Z,3.09
2023-01-29T10:53:44.536Z,3.22
2023-01-29T10:56:41.998Z,3.41
2023-01-29T10:59:36.369Z,3.41
2023-01-29T11:02:03.447Z,3.38
2023-01-29T11:04:32.379Z,3.44
2023-01-29T11:07:00.152Z,3.36
2023-01-29T11:12:03.572Z,3.43
2023-01-29T11:14:52.907Z,3.58
2023-01-29T11:17:23.594Z,3.74
2023-01-29T11:19:51.746Z,3.82
2023-01-29T11:22:20.771Z,4.00
2023-01-29T11:25:16.942Z,4.18
2023-01-29T11:27:55.103Z,4.16
2023-01-29T11:30:28.323Z,4.35
2023-01-29T11:32:57.749Z,4.46
2023-01-29T11:35:25.930Z,4.45
2023-01-29T11:37:52.987Z,4.56
2023-01-29T11:40:19.550Z,4.72
2023-01-29T11:42:47.132Z,4.61
2023-01-29T11:45:33.960Z,4.81
2023-01-29T11:48:01.014Z,5.01
2023-01-29T11:50:33.171Z,5.12
2023-01-29T11:53:00.435Z,5.36
2023-01-29T11:55:40.944Z,5.38
2023-01-29T11:58:34.376Z,5.34
2023-01-29T12:01:01.219Z,5.40
2023-01-29T12:03:41.687Z,5.43
2023-01-29T12:06:18.905Z,5.49
2023-01-29T12:08:58.434Z,5.51
2023-01-29T12:11:30.640Z,5.51
2023-01-29T12:13:59.512Z,5.49
2023-01-29T12:16:53.015Z,5.63
2023-01-29T12:19:33.171Z,5.40
2023-01-29T12:22:04.021Z,5.26
2023-01-29T12:24:41.630Z,5.20
2023-01-29T12:27:15.274Z,5.29
2023-01-29T12:29:59.745Z,5.49
2023-01-29T12:32:50.665Z,5.53
2023-01-29T12:35:27.073Z,5.49
2023-01-29T12:38:00.987Z,5.61
2023-01-29T12:40:33.777Z,5.56
2023-01-29T12:43:09.706Z,5.69
2023-01-29T12:45:37.686Z,5.60
2023-01-29T12:48:13.647Z,5.49
2023-01-29T12:50:41.038Z,5.44
2023-01-29T12:53:28.813Z,5.36
2023-01-29T12:56:20.204Z,5.33
2023-01-29T12:58:50.699Z,5.37
2023-01-29T13:01:33.286Z,5.36
2023-01-29T13:04:06.871Z,5.35
2023-01-29T13:06:41.576Z,5.54
2023-01-29T13:09:22.563Z,5.68
2023-01-29T13:11:56.437Z,5.67
2023-01-29T13:14:28.779Z,5.69
2023-01-29T13:17:09.149Z,5.64
2023-01-29T13:19:41.440Z,5.39
2023-01-29T13:22:18.281Z,5.42
2023-01-29T13:24:55.470Z,5.26
2023-01-29T13:27:33.575Z,5.22
2023-01-29T13:30:00.385Z,5.28
2023-01-29T13:32:29.566Z,5.23
2023-01-29T13:35:00.103Z,5.16
2023-01-29T13:37:45.323Z,5.15
2023-01-29T13:40:24.236Z,5.07
2023-01-29T13:42:53.405Z,5.16
2023-01-29T13:45:34.392Z,5.26
2023-01-29T13:48:27.613Z,5.89
2023-01-29T13:50:56.737Z,5.71
2023-01-29T13:53:27.168Z,5.59
2023-01-29T13:55:54.905Z,5.38
2023-01-29T13:58:33.595Z,5.46
2023-01-29T14:01:01.649Z,5.51
2023-01-29T14:03:29.951Z,5.57
2023-01-29T14:06:02.724Z,5.55
2023-01-29T14:08:34.973Z,5.61
2023-01-29T14:11:14.295Z,5.43
2023-01-29T14:13:48.809Z,5.54
2023-01-29T14:16:15.249Z,5.55
2023-01-29T14:18:55.430Z,5.40
2023-01-29T14:21:28.251Z,5.53
2023-01-29T14:23:58.193Z,5.47
2023-01-29T14:26:46.109Z,5.49
2023-01-29T14:29:14.451Z,5.29
2023-01-29T14:31:49.078Z,5.25
2023-01-29T14:34:23.947Z,5.04
2023-01-29T14:36:55.622Z,5.06
2023-01-29T14:39:29.658Z,5.00
2023-01-29T14:41:57.614Z,5.02
2023-01-29T14:44:45.871Z,4.87
2023-01-29T14:47:28.341Z,4.87
2023-01-29T14:50:00.165Z,4.87
2023-01-29T14:52:37.615Z,4.84
2023-01-29T14:55:09.405Z,4.84
2023-01-29T14:57:36.813Z,4.91
2023-01-29T15:00:17.452Z,4.94
2023-01-29T15:02:45.390Z,4.99
2023-01-29T15:05:19.535Z,5.00
2023-01-29T15:08:01.052Z,4.97
2023-01-29T15:10:35.836Z,4.93
2023-01-29T15:13:07.993Z,4.89
2023-01-29T15:15:40.456Z,4.81
2023-01-29T15:18:17.437Z,5.01
2023-01-29T15:20:44.173Z,5.02
2023-01-29T15:23:24.575Z,4.84
2023-01-29T15:25:54.120Z,4.81
2023-01-29T15:28:21.695Z,4.82
2023-01-29T15:30:55.066Z,4.73
2023-01-29T15:33:21.964Z,4.63
2023-01-29T15:35:51.665Z,4.56
2023-01-29T15:38:22.514Z,5.00
2023-01-29T15:41:19.768Z,5.56
2023-01-29T15:43:49.041Z,5.82
2023-01-29T15:46:33.970Z,5.33
2023-01-29T15:49:06.325Z,5.11
2023-01-29T15:51:33.381Z,4.89
2023-01-29T15:54:02.785Z,4.80
2023-01-29T15:56:33.368Z,4.64
2023-01-29T15:59:07.310Z,4.48
2023-01-29T16:01:35.825Z,4.44
2023-01-29T16:04:03.704Z,4.44
2023-01-29T16:06:38.820Z,4.41
2023-01-29T16:09:07.192Z,4.42
2023-01-29T16:11:35.282Z,4.35
2023-01-29T16:14:03.297Z,4.23
2023-01-29T16:16:30.129Z,4.17
2023-01-29T16:19:01.260Z,4.18
2023-01-29T16:21:33.811Z,4.08
2023-01-29T16:24:09.772Z,4.20
2023-01-29T16:26:44.917Z,4.08
2023-01-29T16:29:14.980Z,4.04
2023-01-29T16:31:44.504Z,3.99
2023-01-29T16:34:22.168Z,3.84
2023-01-29T16:36:49.785Z,3.72
2023-01-29T16:39:32.548Z,3.62
2023-01-29T16:42:12.239Z,3.49
2023-01-29T16:44:47.299Z,3.38
2023-01-29T16:47:20.575Z,3.46
2023-01-29T16:49:53.394Z,3.30
2023-01-29T16:52:23.057Z,3.08
2023-01-29T16:54:52.355Z,2.96
2023-01-29T16:57:25.585Z,2.88
2023-01-29T16:59:55.590Z,2.81
2023-01-29T17:02:24.840Z,2.81
2023-01-29T17:04:54.458Z,2.63
2023-01-29T17:07:21.356Z,2.55
2023-01-29T17:09:54.175Z,2.53
2023-01-29T17:12:24.129Z,2.44
2023-01-29T17:14:59.416Z,2.39
2023-01-29T17:17:35.833Z,2.41
2023-01-29T17:20:14.239Z,2.32
2023-01-29T17:22:40.986Z,2.15
2023-01-29T17:25:09.242Z,2.24
2023-01-29T17:27:35.804Z,2.30
2023-01-29T17:30:02.299Z,2.25
2023-01-29T17:32:44.600Z,2.24
2023-01-29T17:35:14.043Z,2.37
2023-01-29T17:37:40.605Z,2.38
2023-01-29T17:40:33.382Z,2.36
2023-01-29T17:42:59.981Z,2.18
2023-01-29T17:45:26.547Z,1.97
2023-01-29T17:47:53.063Z,2.02
2023-01-29T17:50:28.973Z,1.95
2023-01-29T17:52:55.536Z,1.66
2023-01-29T17:55:22.212Z,1.61
2023-01-29T17:57:48.771Z,1.48
2023-01-29T18:00:20.398Z,1.36
2023-01-29T18:02:47.278Z,1.35
2023-01-29T18:05:15.442Z,1.39
2023-01-29T18:07:44.452Z,1.54
2023-01-29T18:10:17.390Z,1.57
2023-01-29T18:12:44.021Z,1.57
2023-01-29T18:15:11.852Z,1.63
2023-01-29T18:17:38.940Z,1.64
2023-01-29T18:20:25.898Z,1.40
2023-01-29T18:22:52.935Z,1.35
2023-01-29T18:25:20.483Z,1.36
2023-01-29T18:27:47.551Z,1.19
2023-01-29T18:30:14.555Z,1.08
2023-01-29T18:32:41.171Z,0.98
2023-01-29T18:35:08.346Z,0.99
2023-01-29T18:37:35.266Z,0.88
2023-01-29T18:40:02.003Z,1.00
2023-01-29T18:42:31.751Z,1.11
2023-01-29T18:44:58.273Z,0.95
2023-01-29T18:47:25.682Z,0.89
2023-01-29T18:49:52.289Z,0.95
2023-01-29T18:52:18.909Z,1.00
2023-01-29T18:54:45.500Z,0.91
2023-01-29T18:57:14.755Z,0.88
2023-01-29T18:59:58.452Z,0.97
2023-01-29T19:02:25.242Z,0.79
2023-01-29T19:04:51.852Z,0.68
2023-01-29T19:07:18.404Z,0.51
2023-01-29T19:09:46.533Z,0.63
2023-01-29T19:12:13.073Z,0.62
2023-01-29T19:14:39.733Z,0.72
2023-01-29T19:17:06.346Z,0.70
2023-01-29T19:19:32.981Z,0.66
2023-01-29T19:21:59.672Z,0.67
2023-01-29T19:24:26.191Z,0.67
2023-01-29T19:26:52.818Z,0.60
2023-01-29T19:29:20.169Z,0.56
2023-01-29T19:31:47.540Z,0.49
2023-01-29T19:34:14.327Z,0.48
2023-01-29T19:36:41.008Z,0.58
2023-01-29T19:39:07.589Z,0.85
2023-01-29T19:41:34.960Z,0.83
2023-01-29T19:44:01.455Z,0.74
2023-01-29T19:46:30.207Z,0.83
2023-01-29T19:48:58.623Z,0.79
2023-01-29T19:51:27.585Z,0.76
2023-01-29T19:53:55.382Z,0.68
2023-01-29T19:56:21.850Z,0.76
2023-01-29T19:58:48.387Z,0.68
2023-01-29T20:01:21.310Z,0.55
2023-01-29T20:03:49.659Z,0.25
2023-01-29T20:06:18.637Z,0.04
2023-01-29T20:08:46.492Z,-0.03
2023-01-29T20:11:14.076Z,-0.12
2023-01-29T20:13:40.770Z,-0.10
2023-01-29T20:16:08.091Z,-0.25
2023-01-29T20:18:35.069Z,-0.29
2023-01-29T20:21:11.333Z,-0.26
2023-01-29T20:23:39.800Z,-0.18
2023-01-29T20:26:08.987Z,-0.32
2023-01-29T20:28:36.121Z,-0.22
2023-01-29T20:31:03.282Z,-0.35
2023-01-29T20:33:30.193Z,-0.18
2023-01-29T20:35:58.624Z,-0.14
2023-01-29T20:38:32.951Z,0.02
2023-01-29T20:41:15.960Z,-0.08
2023-01-29T20:43:43.857Z,-0.03
2023-01-29T20:46:10.899Z,-0.13
2023-01-29T20:48:38.157Z,-0.09
2023-01-29T20:51:07.948Z,-0.17
2023-01-29T20:53:34.644Z,-0.15
2023-01-29T20:56:03.940Z,-0.23
2023-01-29T20:58:30.885Z,-0.38
2023-01-29T21:00:58.033Z,-0.49
2023-01-29T21:03:24.630Z,-0.50
2023-01-29T21:05:51.755Z,-0.56
2023-01-29T21:08:18.274Z,-0.47
2023-01-29T21:10:47.553Z,-0.38
2023-01-29T21:13:13.999Z,-0.45
2023-01-29T21:15:42.413Z,-0.54
2023-01-29T21:18:08.848Z,-0.57
2023-01-29T21:20:35.508Z,-0.75
2023-01-29T21:23:04.217Z,-0.47
2023-01-29T21:25:32.538Z,-0.59
2023-01-29T21:27:59.171Z,-0.39
2023-01-29T21:30:26.985Z,-0.40
2023-01-29T21:32:53.472Z,-0.68
2023-01-29T21:35:20.166Z,-0.62
2023-01-29T21:37:46.662Z,-0.65
2023-01-29T21:40:13.495Z,-0.72
2023-01-29T21:42:58.404Z,-0.52
2023-01-29T21:45:24.954Z,-0.71
2023-01-29T21:47:51.523Z,-0.53
2023-01-29T21:50:18.465Z,-0.41
2023-01-29T21:52:45.126Z,-0.53
2023-01-29T21:55:11.661Z,-0.54
2023-01-29T21:57:38.233Z,-0.69
2023-01-29T22:00:05.387Z,-0.77
2023-01-29T22:02:32.254Z,-0.69
2023-01-29T22:05:16.512Z,-0.82
2023-01-29T22:07:45.038Z,-0.80
2023-01-29T22:10:12.393Z,-0.68
2023-01-29T22:12:39.840Z,-0.58
2023-01-29T22:15:07.771Z,-0.30
2023-01-29T22:17:35.295Z,-0.28
2023-01-29T22:20:02.367Z,-0.15
2023-01-29T22:22:28.881Z,-0.22
2023-01-29T22:24:56.452Z,-0.43
2023-01-29T22:27:22.941Z,-0.48
2023-01-29T22:29:49.394Z,-0.22
2023-01-29T22:32:16.444Z,-0.21
2023-01-29T22:34:42.957Z,-0.28
2023-01-29T22:37:09.431Z,-0.25
2023-01-29T22:39:35.890Z,-0.33
2023-01-29T22:42:02.575Z,-0.20
2023-01-29T22:44:29.090Z,-0.29
2023-01-29T22:46:55.540Z,-0.29
2023-01-29T22:49:23.128Z,-0.30
2023-01-29T22:52:09.616Z,-0.52
2023-01-29T22:54:41.703Z,-0.70
2023-01-29T22:57:12.972Z,-0.80
2023-01-29T22:59:39.866Z,-0.58
2023-01-29T23:02:07.737Z,-0.51
2023-01-29T23:04:34.527Z,-0.26
2023-01-29T23:07:01.037Z,-0.19
2023-01-29T23:09:27.540Z,-0.33
2023-01-29T23:11:54.129Z,-0.15
2023-01-29T23:14:20.641Z,-0.23
2023-01-29T23:16:47.147Z,-0.41
2023-01-29T23:19:13.655Z,-0.35
2023-01-29T23:21:40.168Z,-0.26
2023-01-29T23:24:08.044Z,-0.30
2023-01-29T23:26:53.217Z,-0.32
2023-01-29T23:29:20.449Z,-0.22
2023-01-29T23:31:47.010Z,-0.19
2023-01-29T23:34:14.015Z,-0.26
2023-01-29T23:36:40.862Z,-0.35
2023-01-29T23:39:07.415Z,-0.38
2023-01-29T23:41:33.995Z,-0.30
2023-01-29T23:44:00.490Z,-0.39
2023-01-29T23:46:27.222Z,-0.48
2023-01-29T23:48:53.789Z,-0.43
2023-01-29T23:51:20.323Z,-0.74
2023-01-29T23:53:46.760Z,-0.69
2023-01-29T23:56:13.202Z,-0.70
2023-01-29T23:58:39.732Z,-0.71
